Time;durP1;ratioP1;P1;durP2;ratioP2;P2;SDS_P1;SDS_P2;PMS_P1;PMS_P2;Temp;Humidity;BMP_temperature;BMP_pressure;BME280_temperature;BME280_humidity;BME280_pressure;Samples;Min_cycle;Max_cycle;Signal;HPM_P1;HPM_P2
2022/10/25 00:00:43;;;;;;;10.25;5.82;;;;;;;0.65;72.97;99712.34;6205433;22;20114;-73
2022/10/25 00:03:11;;;;;;;14.75;6.07;;;;;;;0.67;72.94;99718.41;6231576;22;20016;-73
2022/10/25 00:05:37;;;;;;;9.27;6.07;;;;;;;0.62;73.21;99713.28;6229289;22;20026;-72
2022/10/25 00:08:02;;;;;;;14.30;6.85;;;;;;;0.60;73.14;99703.72;6231183;22;20015;-70
2022/10/25 00:10:27;;;;;;;9.82;6.20;;;;;;;0.60;73.22;99709.84;6229649;22;20020;-70
2022/10/25 00:12:52;;;;;;;10.98;7.07;;;;;;;0.59;72.78;99713.38;6229166;22;20019;-70
2022/10/25 00:15:17;;;;;;;12.30;5.72;;;;;;;0.59;73.11;99715.13;6229089;22;20011;-71
2022/10/25 00:17:42;;;;;;;10.70;6.10;;;;;;;0.56;72.92;99717.88;6227045;22;20480;-71
2022/10/25 00:20:07;;;;;;;11.73;5.63;;;;;;;0.55;72.50;99710.91;6227668;22;20020;-72
2022/10/25 00:22:32;;;;;;;9.68;6.22;;;;;;;0.51;73.01;99709.25;6228452;22;20025;-68
2022/10/25 00:24:57;;;;;;;14.95;6.75;;;;;;;0.48;73.03;99720.69;6227711;22;20015;-70
2022/10/25 00:27:22;;;;;;;9.68;5.28;;;;;;;0.46;73.40;99711.13;6227717;22;20020;-68
2022/10/25 00:29:46;;;;;;;10.10;6.35;;;;;;;0.46;73.18;99719.00;6202637;22;20098;-70
2022/10/25 00:32:11;;;;;;;14.20;6.80;;;;;;;0.45;72.94;99712.94;6229216;22;20015;-62
2022/10/25 00:34:35;;;;;;;10.68;5.40;;;;;;;0.42;73.25;99715.63;6229082;22;20019;-67
2022/10/25 00:37:00;;;;;;;13.35;5.88;;;;;;;0.39;73.33;99731.47;6228771;22;20022;-67
2022/10/25 00:39:24;;;;;;;11.35;5.88;;;;;;;0.40;73.26;99719.22;6229653;22;20019;-69
2022/10/25 00:41:49;;;;;;;9.48;5.30;;;;;;;0.40;73.35;99724.44;6227942;22;20020;-66
2022/10/25 00:44:35;;;;;;;9.55;5.10;;;;;;;0.47;73.19;99731.22;6228982;22;20011;-67
2022/10/25 00:47:04;;;;;;;9.43;5.05;;;;;;;0.38;72.97;99728.88;6228711;22;20103;-69
2022/10/25 00:49:31;;;;;;;8.88;5.13;;;;;;;0.31;72.86;99722.97;6229243;22;20026;-66
2022/10/25 00:52:01;;;;;;;9.63;5.75;;;;;;;0.31;73.22;99729.06;6227929;22;20026;-69
2022/10/25 00:54:30;;;;;;;8.38;5.03;;;;;;;0.29;73.44;99720.38;6229050;22;20019;-69
2022/10/25 00:57:00;;;;;;;14.40;5.65;;;;;;;0.28;73.74;99728.28;6229421;22;20270;-70
2022/10/25 00:59:27;;;;;;;9.73;5.45;;;;;;;0.24;73.57;99737.97;6201809;22;20099;-67
2022/10/25 01:01:53;;;;;;;13.88;5.95;;;;;;;0.22;73.42;99739.81;6228948;22;20016;-68
2022/10/25 01:04:21;;;;;;;13.25;5.45;;;;;;;0.22;73.67;99737.19;6228871;22;20019;-70
2022/10/25 01:06:49;;;;;;;12.15;5.97;;;;;;;0.22;73.43;99742.44;6228990;22;20050;-66
2022/10/25 01:09:22;;;;;;;11.18;6.10;;;;;;;0.22;73.51;99739.81;6199357;22;20020;-69
2022/10/25 01:11:47;;;;;;;14.48;5.90;;;;;;;0.19;74.09;99732.03;6225372;22;20015;-70
2022/10/25 01:14:14;;;;;;;14.15;6.20;;;;;;;0.20;73.49;99735.50;6227996;22;20011;-69
2022/10/25 01:16:48;;;;;;;10.07;5.78;;;;;;;0.22;73.97;99731.94;6228748;22;20015;-66
2022/10/25 01:19:34;;;;;;;9.93;5.47;;;;;;;0.25;74.04;99738.84;6229300;22;20051;-65
2022/10/25 01:22:14;;;;;;;13.27;5.65;;;;;;;0.17;73.79;99741.69;6239006;22;20130;-67
2022/10/25 01:25:07;;;;;;;11.57;5.53;;;;;;;0.23;74.01;99745.88;6239090;22;20026;-66
2022/10/25 01:27:53;;;;;;;11.07;5.30;;;;;;;0.18;74.15;99739.94;6228714;22;20641;-69
2022/10/25 01:31:08;;;;;;;11.23;6.15;;;;;;;0.21;73.83;99738.09;6226994;22;20379;-68
2022/10/25 01:33:41;;;;;;;14.88;6.30;;;;;;;0.17;74.29;99733.81;6105836;23;20025;-69
2022/10/25 01:36:19;;;;;;;10.88;5.70;;;;;;;0.14;74.16;99739.16;6106944;23;20020;-75
2022/10/25 01:39:02;;;;;;;9.88;4.95;;;;;;;0.14;74.32;99740.91;6109091;23;20028;-76
2022/10/25 01:41:33;;;;;;;13.77;5.65;;;;;;;0.10;74.07;99744.53;6086237;23;20103;-79
2022/10/25 01:44:01;;;;;;;11.27;5.35;;;;;;;0.03;74.28;99751.69;6109662;23;20164;-71
2022/10/25 01:46:43;;;;;;;8.07;5.35;;;;;;;0.07;74.50;99752.47;6097405;23;20018;-76
2022/10/25 01:49:13;;;;;;;14.35;6.45;;;;;;;0.01;74.20;99750.88;6124390;23;20021;-77
2022/10/25 01:51:38;;;;;;;9.40;5.18;;;;;;;-0.02;74.35;99753.59;6116135;23;20017;-74
2022/10/25 01:54:15;;;;;;;15.25;5.90;;;;;;;-0.03;74.49;99749.25;6083228;23;20076;-69
2022/10/25 01:57:29;;;;;;;12.50;7.00;;;;;;;0.03;74.76;99754.31;6105959;23;20052;-71
2022/10/25 01:59:56;;;;;;;12.77;5.88;;;;;;;-0.03;74.76;99757.97;5996096;23;20023;-71
2022/10/25 02:02:41;;;;;;;14.40;6.03;;;;;;;-0.06;74.89;99759.81;6019818;23;20045;-68
2022/10/25 02:05:12;;;;;;;8.73;5.10;;;;;;;-0.05;74.61;99753.66;5994321;23;20019;-65
2022/10/25 02:07:40;;;;;;;11.93;8.48;;;;;;;-0.10;75.15;99750.28;5970790;23;20074;-67
2022/10/25 02:10:19;;;;;;;8.45;5.70;;;;;;;-0.07;74.62;99751.09;6058728;23;20017;-67
2022/10/25 02:13:11;;;;;;;10.68;5.60;;;;;;;-0.06;74.85;99759.81;6135469;23;20021;-64
2022/10/25 02:15:40;;;;;;;14.27;6.57;;;;;;;-0.10;75.00;99763.41;6110927;23;20856;-68
2022/10/25 02:18:11;;;;;;;14.27;6.10;;;;;;;-0.11;74.88;99766.91;6135665;23;20289;-68
2022/10/25 02:20:36;;;;;;;7.68;4.95;;;;;;;-0.13;75.16;99753.03;6110876;23;20017;-67
2022/10/25 02:23:03;;;;;;;10.02;5.50;;;;;;;-0.11;75.34;99769.53;6111243;23;20013;-71
2022/10/25 02:25:32;;;;;;;10.85;6.80;;;;;;;-0.12;75.36;99759.97;6136031;23;20495;-69
2022/10/25 02:27:58;;;;;;;11.32;6.47;;;;;;;-0.15;75.00;99760.06;6112411;23;20027;-74
2022/10/25 02:30:23;;;;;;;10.23;5.88;;;;;;;-0.16;75.25;99760.94;6084996;23;20017;-72
2022/10/25 02:32:48;;;;;;;10.15;5.95;;;;;;;-0.18;75.35;99766.22;6135323;23;20036;-72
2022/10/25 02:35:15;;;;;;;9.65;5.13;;;;;;;-0.15;75.30;99770.53;6085862;23;20017;-72
2022/10/25 02:37:40;;;;;;;11.23;5.53;;;;;;;-0.17;74.87;99770.56;6204004;22;20015;-71
2022/10/25 02:40:05;;;;;;;8.85;6.15;;;;;;;-0.18;75.49;99774.09;6229512;22;20016;-72
2022/10/25 02:42:30;;;;;;;9.55;5.30;;;;;;;-0.21;75.19;99760.19;6232158;22;20012;-72
2022/10/25 02:44:54;;;;;;;17.45;7.45;;;;;;;-0.20;75.03;99767.16;6231934;22;20015;-72
2022/10/25 02:47:19;;;;;;;14.70;6.35;;;;;;;-0.23;75.19;99760.25;6232501;22;20019;-71
2022/10/25 02:49:43;;;;;;;10.52;5.78;;;;;;;-0.24;75.08;99765.53;6232053;22;20335;-71
2022/10/25 02:52:08;;;;;;;11.10;6.35;;;;;;;-0.26;74.77;99757.72;6233680;22;20030;-71
2022/10/25 02:54:32;;;;;;;10.70;5.45;;;;;;;-0.27;74.92;99760.38;6232939;22;20447;-71
2022/10/25 02:56:57;;;;;;;16.73;7.47;;;;;;;-0.30;74.73;99766.53;6232999;22;20015;-72
2022/10/25 02:59:22;;;;;;;14.57;6.13;;;;;;;-0.32;75.14;99773.56;6235241;22;20015;-70
2022/10/25 03:01:47;;;;;;;14.13;6.38;;;;;;;-0.35;74.83;99775.44;6236631;22;20015;-70
2022/10/25 03:04:11;;;;;;;14.80;5.80;;;;;;;-0.39;74.86;99772.88;6238862;22;20070;-70
2022/10/25 03:06:36;;;;;;;18.02;5.80;;;;;;;-0.40;75.01;99775.53;6210122;22;20035;-70
2022/10/25 03:09:01;;;;;;;10.38;5.80;;;;;;;-0.41;75.18;99769.44;6230927;22;20015;-70
2022/10/25 03:11:26;;;;;;;11.23;5.95;;;;;;;-0.42;74.96;99766.84;6205593;22;20015;-70
2022/10/25 03:13:50;;;;;;;14.18;6.07;;;;;;;-0.46;75.23;99763.47;6233813;22;20011;-70
2022/10/25 03:16:15;;;;;;;11.07;5.60;;;;;;;-0.47;75.18;99769.59;6232828;22;20102;-66
2022/10/25 03:18:39;;;;;;;11.65;5.78;;;;;;;-0.47;75.09;99779.22;6228761;22;20047;-67
2022/10/25 03:21:04;;;;;;;14.85;5.72;;;;;;;-0.48;75.09;99770.50;6203474;22;20022;-66
2022/10/25 03:23:29;;;;;;;15.30;6.57;;;;;;;-0.49;75.31;99768.78;6228815;22;20466;-66
2022/10/25 03:25:56;;;;;;;10.52;6.20;;;;;;;-0.49;75.34;99766.16;6228658;22;20016;-66
2022/10/25 03:28:21;;;;;;;9.10;5.10;;;;;;;-0.50;75.40;99769.66;6230502;22;20019;-66
2022/10/25 03:30:45;;;;;;;10.80;5.88;;;;;;;-0.49;75.45;99767.91;6230436;22;20016;-66
2022/10/25 03:33:10;;;;;;;11.63;6.22;;;;;;;-0.50;75.53;99769.66;6228365;22;20354;-68
2022/10/25 03:35:35;;;;;;;11.30;5.40;;;;;;;-0.50;75.55;99774.91;6230368;22;20090;-68
2022/10/25 03:37:59;;;;;;;12.75;6.00;;;;;;;-0.52;75.69;99771.47;6230290;22;20020;-68
2022/10/25 03:40:24;;;;;;;8.77;5.18;;;;;;;-0.51;75.63;99775.78;6229015;22;20019;-67
2022/10/25 03:42:49;;;;;;;8.90;5.38;;;;;;;-0.51;75.64;99767.09;6228101;22;20090;-67
2022/10/25 03:45:13;;;;;;;19.70;6.63;;;;;;;-0.51;75.80;99773.19;6202880;22;20020;-66
2022/10/25 03:47:38;;;;;;;14.77;5.50;;;;;;;-0.52;76.09;99784.56;6228577;22;20031;-68
2022/10/25 03:50:04;;;;;;;13.95;5.70;;;;;;;-0.53;76.41;99779.34;6228380;22;20019;-67
2022/10/25 03:52:28;;;;;;;9.98;5.60;;;;;;;-0.52;75.87;99795.03;6229800;22;20023;-68
2022/10/25 03:54:53;;;;;;;15.45;6.00;;;;;;;-0.52;76.02;99781.94;6201754;22;20038;-67
2022/10/25 03:57:18;;;;;;;15.93;6.35;;;;;;;-0.54;76.12;99788.97;6230055;22;20111;-69
2022/10/25 03:59:43;;;;;;;13.23;6.38;;;;;;;-0.56;76.03;99785.50;6228651;22;20038;-67
2022/10/25 04:02:07;;;;;;;17.73;6.70;;;;;;;-0.56;76.00;99775.03;6229267;22;20482;-67
2022/10/25 04:04:33;;;;;;;21.60;6.53;;;;;;;-0.56;75.97;99777.66;6228225;22;20023;-67
2022/10/25 04:06:57;;;;;;;19.80;6.68;;;;;;;-0.56;75.89;99771.56;6202847;22;20102;-69
2022/10/25 04:09:22;;;;;;;14.02;7.07;;;;;;;-0.57;75.90;99773.34;6227898;22;20015;-70
2022/10/25 04:11:46;;;;;;;22.20;7.30;;;;;;;-0.57;76.08;99781.19;6202710;22;20015;-70
2022/10/25 04:14:11;;;;;;;14.38;7.05;;;;;;;-0.57;76.07;99783.81;6201882;22;20015;-70
2022/10/25 04:16:36;;;;;;;14.85;6.32;;;;;;;-0.58;76.01;99787.34;6228722;22;20019;-69
2022/10/25 04:19:01;;;;;;;13.32;7.45;;;;;;;-0.58;76.31;99787.34;6202430;22;20031;-70
2022/10/25 04:21:26;;;;;;;16.10;6.97;;;;;;;-0.58;76.17;99787.34;6201825;22;20436;-69
2022/10/25 04:23:51;;;;;;;12.32;6.97;;;;;;;-0.58;76.14;99782.09;6228198;22;20027;-70
2022/10/25 04:26:17;;;;;;;10.27;6.72;;;;;;;-0.58;75.99;99782.09;6227908;22;20016;-69
2022/10/25 04:28:43;;;;;;;15.43;6.63;;;;;;;-0.57;75.98;99769.88;6227733;22;20012;-70
2022/10/25 04:31:08;;;;;;;15.85;6.80;;;;;;;-0.56;75.95;99776.78;6202533;22;20019;-69
2022/10/25 04:33:32;;;;;;;13.48;6.50;;;;;;;-0.56;76.26;99771.56;6201096;22;20130;-69
2022/10/25 04:35:58;;;;;;;14.70;7.03;;;;;;;-0.53;75.84;99774.97;6228312;22;20022;-69
2022/10/25 04:38:23;;;;;;;14.80;7.00;;;;;;;-0.51;76.07;99769.69;6230016;22;20455;-69
2022/10/25 04:40:58;;;;;;;15.25;5.72;;;;;;;-0.44;76.04;99761.63;6229638;22;20098;-70
2022/10/25 04:43:24;;;;;;;17.77;6.75;;;;;;;-0.44;75.94;99772.13;6229828;22;20027;-70
2022/10/25 04:45:49;;;;;;;17.05;6.05;;;;;;;-0.41;75.73;99771.19;6229298;22;20016;-70
2022/10/25 04:48:14;;;;;;;14.75;6.55;;;;;;;-0.39;75.45;99772.88;6228154;22;20026;-70
2022/10/25 04:50:39;;;;;;;22.33;8.00;;;;;;;-0.33;75.72;99770.97;6202440;22;20023;-70
2022/10/25 04:53:04;;;;;;;16.92;6.45;;;;;;;-0.22;75.47;99768.94;6227677;22;20026;-71
2022/10/25 04:55:30;;;;;;;15.98;6.97;;;;;;;-0.09;75.56;99765.13;6229495;22;20012;-68
2022/10/25 04:57:55;;;;;;;16.30;6.95;;;;;;;0.21;75.04;99763.44;6202005;22;20020;-69
2022/10/25 05:00:19;;;;;;;28.65;7.65;;;;;;;0.66;75.38;99766.53;6229556;22;20020;-70
2022/10/25 05:02:44;;;;;;;26.38;9.40;;;;;;;1.26;74.45;99773.41;6229020;22;20090;-70
2022/10/25 05:05:08;;;;;;;24.63;8.73;;;;;;;1.90;72.92;99776.56;6229520;22;20351;-70
2022/10/25 05:07:33;;;;;;;25.15;8.52;;;;;;;2.50;70.10;99773.53;6229164;22;20351;-71
2022/10/25 05:09:58;;;;;;;16.00;7.22;;;;;;;3.00;67.69;99779.53;6227489;22;20089;-68
2022/10/25 05:12:22;;;;;;;19.42;7.82;;;;;;;3.37;65.25;99784.25;6229206;22;20107;-67
2022/10/25 05:14:47;;;;;;;24.02;7.75;;;;;;;3.68;64.28;99786.47;6202299;22;20020;-68
2022/10/25 05:17:11;;;;;;;15.50;7.72;;;;;;;3.95;62.66;99787.94;6228963;22;20022;-69
2022/10/25 05:19:36;;;;;;;23.13;6.82;;;;;;;4.22;61.77;99785.06;6228066;22;20023;-67
2022/10/25 05:22:01;;;;;;;14.50;6.50;;;;;;;4.57;60.93;99788.78;6229396;22;20020;-67
2022/10/25 05:24:26;;;;;;;16.05;6.15;;;;;;;4.97;60.01;99795.75;6227094;22;20034;-67
2022/10/25 05:26:51;;;;;;;21.33;6.78;;;;;;;5.28;59.66;99792.56;6227504;22;20011;-68
2022/10/25 05:29:15;;;;;;;19.83;6.78;;;;;;;5.44;58.69;99797.03;6227606;22;20026;-68
2022/10/25 05:31:40;;;;;;;11.80;7.25;;;;;;;5.66;57.68;99794.19;6202197;22;20026;-68
2022/10/25 05:34:05;;;;;;;20.10;6.68;;;;;;;5.98;57.68;99794.44;6201887;22;20463;-68
2022/10/25 05:36:32;;;;;;;16.42;6.80;;;;;;;6.34;55.55;99802.28;6227817;22;20015;-68
2022/10/25 05:38:57;;;;;;;17.70;6.53;;;;;;;6.61;54.87;99792.91;6229285;22;20020;-68
2022/10/25 05:41:22;;;;;;;12.63;6.03;;;;;;;6.95;54.03;99797.25;6229283;22;20016;-69
2022/10/25 05:43:46;;;;;;;17.42;6.85;;;;;;;7.49;53.50;99801.28;6229491;22;20336;-68
2022/10/25 05:46:14;;;;;;;12.98;5.93;;;;;;;8.18;51.49;99799.97;6177261;22;20394;-70
2022/10/25 05:48:39;;;;;;;11.05;6.55;;;;;;;8.86;49.34;99789.66;6227810;22;20026;-69
2022/10/25 05:51:15;;;;;;;19.48;7.45;;;;;;;9.47;47.18;99794.63;6202346;22;20020;-69
2022/10/25 05:53:44;;;;;;;16.00;8.00;;;;;;;9.99;46.53;99788.53;6229467;22;20015;-71
2022/10/25 05:56:09;;;;;;;15.07;6.68;;;;;;;10.55;45.44;99782.91;6229660;22;20019;-68
2022/10/25 05:58:34;;;;;;;22.23;7.28;;;;;;;11.14;44.12;99785.00;6202695;22;20016;-69
2022/10/25 06:00:59;;;;;;;21.67;7.80;;;;;;;11.50;42.62;99779.69;6230039;22;20098;-68
2022/10/25 06:03:24;;;;;;;21.45;9.02;;;;;;;11.46;42.23;99796.00;6230251;22;20098;-68
2022/10/25 06:05:48;;;;;;;22.27;7.15;;;;;;;11.43;41.86;99788.22;6230378;22;20044;-68
2022/10/25 06:08:13;;;;;;;26.70;8.00;;;;;;;11.74;41.70;99790.34;6231391;22;20039;-69
2022/10/25 06:10:38;;;;;;;19.27;7.97;;;;;;;12.22;40.29;99782.31;6227993;22;20360;-68
2022/10/25 06:13:02;;;;;;;18.33;7.07;;;;;;;12.17;40.07;99793.38;6178246;22;20049;-68
2022/10/25 06:15:27;;;;;;;25.88;7.93;;;;;;;11.42;40.71;99783.84;6229951;22;20026;-68
2022/10/25 06:17:52;;;;;;;22.65;8.45;;;;;;;10.36;42.86;99793.13;6230734;22;20018;-68
2022/10/25 06:20:16;;;;;;;27.65;8.18;;;;;;;9.36;44.18;99786.47;6229819;22;20086;-68
2022/10/25 06:22:42;;;;;;;19.50;8.77;;;;;;;8.47;46.52;99790.28;6229842;22;20086;-67
2022/10/25 06:25:07;;;;;;;20.48;9.23;;;;;;;7.70;48.55;99806.31;6229320;22;20024;-68
2022/10/25 06:27:31;;;;;;;18.80;7.32;;;;;;;7.09;50.10;99804.47;6230132;22;20023;-68
2022/10/25 06:29:56;;;;;;;19.13;7.32;;;;;;;6.63;51.51;99798.97;6229634;22;20015;-68
2022/10/25 06:32:21;;;;;;;23.42;7.88;;;;;;;6.24;52.54;99793.94;6178428;22;20012;-69
2022/10/25 06:34:45;;;;;;;21.35;8.40;;;;;;;5.97;53.09;99793.59;6229261;22;20091;-68
2022/10/25 06:37:10;;;;;;;29.77;8.43;;;;;;;5.76;53.73;99797.25;6229937;22;20523;-68
2022/10/25 06:39:34;;;;;;;15.55;7.78;;;;;;;5.57;54.56;99805.22;6231125;22;20473;-68
2022/10/25 06:41:59;;;;;;;20.38;9.13;;;;;;;5.46;54.85;99805.75;6231516;22;20490;-69
2022/10/25 06:44:23;;;;;;;20.63;8.07;;;;;;;5.38;55.38;99805.25;6231490;22;20015;-68
2022/10/25 06:46:48;;;;;;;16.73;7.78;;;;;;;5.32;55.92;99815.25;6231254;22;20024;-69
2022/10/25 06:49:12;;;;;;;26.70;8.70;;;;;;;5.28;55.47;99817.19;6231663;22;20877;-68
2022/10/25 06:51:37;;;;;;;20.45;8.57;;;;;;;5.24;55.06;99812.97;6231455;22;20016;-68
2022/10/25 06:54:06;;;;;;;16.35;8.05;;;;;;;5.25;55.23;99819.97;6230995;22;20015;-68
2022/10/25 06:56:31;;;;;;;13.80;7.43;;;;;;;5.28;54.99;99813.72;6203397;22;20015;-68
2022/10/25 06:58:56;;;;;;;14.82;6.63;;;;;;;5.35;55.03;99815.13;6228154;22;20451;-70
2022/10/25 07:01:22;;;;;;;15.65;7.20;;;;;;;5.43;54.89;99824.38;6230749;22;20016;-68
2022/10/25 07:03:49;;;;;;;12.85;7.03;;;;;;;5.51;54.68;99824.03;6230992;22;20047;-68
2022/10/25 07:06:22;;;;;;;16.73;7.35;;;;;;;5.66;54.43;99815.34;6230977;22;20133;-68
2022/10/25 07:08:50;;;;;;;13.07;7.05;;;;;;;5.70;53.93;99816.94;6204028;22;20344;-68
2022/10/25 07:11:18;;;;;;;12.75;4.95;;;;;;;5.84;53.28;99821.53;6231284;22;20025;-68
2022/10/25 07:13:43;;;;;;;13.57;6.10;;;;;;;5.93;53.72;99823.75;6232555;22;20400;-68
2022/10/25 07:16:11;;;;;;;13.80;4.57;;;;;;;6.06;53.34;99824.00;6232497;22;20008;-68
2022/10/25 07:18:36;;;;;;;16.38;5.60;;;;;;;6.13;52.38;99830.69;6230190;22;20019;-68
2022/10/25 07:21:03;;;;;;;18.00;5.53;;;;;;;6.28;52.52;99821.13;6203342;22;20108;-69
2022/10/25 07:23:29;;;;;;;19.00;7.05;;;;;;;6.84;51.67;99826.97;6231496;22;20015;-69
2022/10/25 07:25:53;;;;;;;12.30;5.13;;;;;;;9.03;48.74;99821.34;6205418;22;20051;-70
2022/10/25 07:28:18;;;;;;;13.50;5.70;;;;;;;11.96;43.00;99819.88;6232093;22;20024;-71
2022/10/25 07:30:45;;;;;;;13.27;5.65;;;;;;;14.83;36.87;99809.19;6232236;22;20016;-69
2022/10/25 07:33:10;;;;;;;11.07;5.65;;;;;;;17.32;32.34;99814.13;6203356;22;20470;-69
2022/10/25 07:35:35;;;;;;;11.52;6.68;;;;;;;19.29;29.47;99812.16;6203399;22;20011;-67
2022/10/25 07:37:59;;;;;;;14.35;5.88;;;;;;;20.84;26.60;99799.81;6230562;22;20145;-67
2022/10/25 07:40:24;;;;;;;10.95;5.10;;;;;;;21.90;24.12;99803.00;6203607;22;20588;-68
2022/10/25 07:42:49;;;;;;;11.85;5.18;;;;;;;22.81;24.04;99808.50;6229400;22;20358;-69
2022/10/25 07:45:14;;;;;;;12.95;5.63;;;;;;;23.70;22.93;99812.97;6203306;22;20023;-68
2022/10/25 07:47:38;;;;;;;13.23;5.25;;;;;;;24.61;21.17;99816.94;6230028;22;20020;-68
2022/10/25 07:50:03;;;;;;;9.63;5.47;;;;;;;25.32;20.30;99825.94;6206136;22;20465;-69
2022/10/25 07:52:28;;;;;;;16.60;5.15;;;;;;;25.94;19.85;99830.50;6230755;22;20065;-71
2022/10/25 07:54:52;;;;;;;10.80;5.30;;;;;;;26.41;19.28;99804.19;6205517;22;20455;-70
2022/10/25 07:57:17;;;;;;;14.95;5.78;;;;;;;27.03;18.77;99825.69;6229496;22;20011;-70
2022/10/25 07:59:41;;;;;;;11.02;5.03;;;;;;;27.31;17.97;99828.19;6230890;22;20016;-69
2022/10/25 08:02:10;;;;;;;12.40;5.50;;;;;;;27.28;17.74;99825.88;6231471;22;20537;-70
2022/10/25 08:04:35;;;;;;;10.50;5.18;;;;;;;27.17;18.03;99821.03;6230076;22;20015;-70
2022/10/25 08:07:00;;;;;;;9.95;5.88;;;;;;;27.20;17.21;99817.91;6207009;22;20023;-72
2022/10/25 08:09:24;;;;;;;9.68;5.43;;;;;;;27.50;17.43;99813.59;6239776;22;20012;-71
2022/10/25 08:11:49;;;;;;;10.30;5.60;;;;;;;27.99;16.80;99818.50;6242472;22;20094;-71
2022/10/25 08:14:14;;;;;;;14.35;7.03;;;;;;;28.53;16.80;99820.75;6244543;22;20482;-73
2022/10/25 08:16:39;;;;;;;10.25;6.38;;;;;;;28.79;16.08;99822.47;6231452;22;20070;-73
2022/10/25 08:19:04;;;;;;;7.53;4.75;;;;;;;28.64;16.52;99824.69;6230675;22;20015;-70
2022/10/25 08:21:28;;;;;;;10.57;5.65;;;;;;;28.18;16.05;99830.47;6231609;22;20452;-71
2022/10/25 08:23:53;;;;;;;11.60;5.65;;;;;;;27.51;16.67;99828.13;6231304;22;20026;-70
2022/10/25 08:26:22;;;;;;;12.82;5.30;;;;;;;26.89;16.92;99823.97;6230792;22;20102;-70
2022/10/25 08:28:47;;;;;;;6.90;5.25;;;;;;;25.97;17.17;99825.44;6230842;22;20022;-72
2022/10/25 08:31:12;;;;;;;9.65;5.45;;;;;;;24.98;18.37;99823.16;6231877;22;20020;-70
2022/10/25 08:33:36;;;;;;;9.93;5.47;;;;;;;24.10;19.30;99833.38;6207187;22;20024;-69
2022/10/25 08:36:01;;;;;;;8.93;5.25;;;;;;;24.31;18.78;99827.13;6231243;22;20007;-69
2022/10/25 08:38:26;;;;;;;8.20;5.22;;;;;;;24.90;18.23;99824.97;6232388;22;20022;-71
2022/10/25 08:40:57;;;;;;;13.90;5.05;;;;;;;25.76;17.90;99832.91;6233784;22;20016;-70
2022/10/25 08:43:22;;;;;;;6.65;4.25;;;;;;;25.89;17.47;99828.38;6206234;22;20605;-69
2022/10/25 08:45:57;;;;;;;7.95;4.75;;;;;;;26.18;18.28;99835.41;6228592;22;20463;-69
2022/10/25 08:48:29;;;;;;;9.00;4.95;;;;;;;25.77;17.45;99837.34;6228969;22;20386;-68
2022/10/25 08:51:02;;;;;;;8.02;4.35;;;;;;;25.12;17.20;99833.16;6230270;22;20015;-71
2022/10/25 08:53:41;;;;;;;8.80;4.85;;;;;;;24.18;17.57;99827.81;6230826;22;20493;-70
2022/10/25 08:56:09;;;;;;;9.27;4.70;;;;;;;23.97;18.49;99835.94;6230724;22;20046;-71
2022/10/25 08:58:37;;;;;;;13.15;4.72;;;;;;;23.65;18.15;99830.94;6231232;22;20094;-70
2022/10/25 09:01:39;;;;;;;7.28;4.30;;;;;;;23.64;19.19;99830.09;6231451;22;20019;-69
2022/10/25 09:04:04;;;;;;;8.60;5.53;;;;;;;23.52;18.94;99829.72;6183222;22;20733;-69
2022/10/25 09:06:42;;;;;;;11.30;5.53;;;;;;;23.38;19.07;99827.78;6229115;22;20034;-71
2022/10/25 09:09:25;;;;;;;8.63;5.22;;;;;;;23.10;18.69;99830.31;6230031;22;20050;-71
2022/10/25 09:12:11;;;;;;;8.52;4.93;;;;;;;22.93;20.05;99830.66;6231808;22;20015;-71
2022/10/25 09:15:14;;;;;;;10.25;4.35;;;;;;;23.22;20.17;99819.84;6231051;22;20019;-71
2022/10/25 09:17:50;;;;;;;6.13;4.35;;;;;;;23.17;19.70;99827.69;6239825;22;20035;-71
2022/10/25 09:20:27;;;;;;;10.85;4.82;;;;;;;22.61;19.89;99818.16;6215531;22;20092;-68
2022/10/25 09:23:14;;;;;;;11.05;4.93;;;;;;;22.74;19.65;99821.13;6207761;22;20347;-73
2022/10/25 09:26:03;;;;;;;6.85;4.30;;;;;;;22.39;19.26;99817.16;6233030;22;20462;-72
2022/10/25 09:28:30;;;;;;;13.80;4.90;;;;;;;22.81;19.45;99820.22;6231285;22;20015;-77
2022/10/25 09:30:58;;;;;;;10.13;5.20;;;;;;;23.52;18.05;99823.44;6233691;22;20016;-72
2022/10/25 09:33:29;;;;;;;8.70;4.60;;;;;;;24.17;17.34;99809.78;6236148;22;20023;-68
2022/10/25 09:35:56;;;;;;;4.53;3.72;;;;;;;25.12;16.70;99819.50;6235831;22;20011;-68
2022/10/25 09:38:41;;;;;;;8.35;5.10;;;;;;;26.18;16.92;99824.50;6238116;22;20020;-71
2022/10/25 09:41:24;;;;;;;10.63;4.93;;;;;;;26.27;15.66;99808.75;6234881;22;20022;-71
2022/10/25 09:44:13;;;;;;;7.85;4.20;;;;;;;25.88;16.12;99820.38;6236014;22;20041;-72
2022/10/25 09:46:56;;;;;;;7.88;4.88;;;;;;;25.56;16.46;99814.53;6233210;22;20066;-72
2022/10/25 09:49:32;;;;;;;6.35;4.78;;;;;;;25.39;16.56;99815.91;6233928;22;20015;-71
2022/10/25 09:52:21;;;;;;;9.30;5.50;;;;;;;25.50;18.28;99823.53;6231684;22;20058;-71
2022/10/25 09:54:56;;;;;;;8.63;5.43;;;;;;;24.91;17.23;99810.31;6208667;22;20441;-72
2022/10/25 09:57:21;;;;;;;12.90;5.20;;;;;;;23.58;18.52;99814.53;6236292;22;20043;-72
2022/10/25 09:59:49;;;;;;;8.45;5.40;;;;;;;22.98;18.99;99811.91;6230888;22;20019;-72
2022/10/25 10:02:21;;;;;;;8.85;5.32;;;;;;;22.23;19.40;99809.13;6178879;22;20011;-72
2022/10/25 10:04:46;;;;;;;7.47;4.70;;;;;;;21.14;20.12;99807.19;6229214;22;20095;-72
2022/10/25 10:07:17;;;;;;;9.32;4.15;;;;;;;20.32;20.67;99813.66;6230071;22;20054;-72
2022/10/25 10:09:43;;;;;;;6.18;3.70;;;;;;;18.71;21.95;99809.22;6206929;22;20046;-72
2022/10/25 10:12:20;;;;;;;9.55;5.28;;;;;;;17.31;23.79;99802.50;6202575;22;20523;-72
2022/10/25 10:14:53;;;;;;;10.55;4.95;;;;;;;15.78;26.10;99808.91;6228957;22;20022;-73
2022/10/25 10:17:19;;;;;;;9.38;4.50;;;;;;;14.43;27.66;99802.88;6177190;22;20018;-72
2022/10/25 10:20:12;;;;;;;8.00;5.38;;;;;;;13.60;28.85;99803.50;6231644;22;20026;-72
2022/10/25 10:22:45;;;;;;;13.50;4.78;;;;;;;12.56;31.13;99804.66;6208635;22;20018;-69
2022/10/25 10:25:16;;;;;;;11.48;5.40;;;;;;;11.87;31.68;99811.69;6235185;22;20023;-70
2022/10/25 10:27:41;;;;;;;16.70;5.43;;;;;;;11.15;32.16;99798.22;6205090;22;20446;-69
2022/10/25 10:30:08;;;;;;;12.50;4.03;;;;;;;10.65;33.14;99796.44;6229004;22;20093;-68
2022/10/25 10:32:36;;;;;;;9.82;4.75;;;;;;;10.19;33.79;99798.72;6227559;22;20023;-67
2022/10/25 10:35:04;;;;;;;8.48;4.70;;;;;;;9.79;34.64;99804.03;6229149;22;20012;-68
2022/10/25 10:37:30;;;;;;;12.48;4.30;;;;;;;9.43;35.22;99804.59;6228111;22;20020;-68
2022/10/25 10:40:22;;;;;;;19.10;10.75;;;;;;;9.22;35.85;99805.13;6201756;22;20011;-68
2022/10/25 10:42:46;;;;;;;10.65;5.80;;;;;;;8.84;36.88;99796.88;6227773;22;20486;-68
2022/10/25 10:45:14;;;;;;;9.02;4.88;;;;;;;8.62;37.26;99805.31;6201854;22;20466;-68
2022/10/25 10:47:48;;;;;;;6.82;4.18;;;;;;;8.44;37.72;99811.75;6227438;22;20024;-66
2022/10/25 10:50:27;;;;;;;14.37;4.37;;;;;;;8.24;37.28;99812.91;6239205;22;20037;-67
2022/10/25 10:52:57;;;;;;;9.82;4.57;;;;;;;7.99;37.91;99806.38;6227442;22;20050;-67
2022/10/25 10:55:27;;;;;;;9.93;4.35;;;;;;;7.80;38.54;99807.50;6240387;22;20015;-69
2022/10/25 10:57:54;;;;;;;9.90;4.88;;;;;;;7.68;39.12;99809.06;6230190;22;20126;-67
2022/10/25 11:00:25;;;;;;;8.32;3.85;;;;;;;7.60;38.65;99804.19;6232521;22;20015;-68
2022/10/25 11:02:50;;;;;;;8.27;3.72;;;;;;;7.46;38.90;99808.56;6229703;22;20133;-66
2022/10/25 11:05:27;;;;;;;10.68;4.18;;;;;;;7.45;39.53;99806.88;6229047;22;20022;-66
2022/10/25 11:08:00;;;;;;;12.77;5.43;;;;;;;7.33;40.40;99815.50;6231133;22;20073;-67
2022/10/25 11:10:32;;;;;;;8.38;4.10;;;;;;;7.29;39.82;99815.69;6231450;22;20012;-65
2022/10/25 11:13:22;;;;;;;11.02;4.57;;;;;;;7.23;40.42;99807.19;6229524;22;20043;-67
2022/10/25 11:16:05;;;;;;;11.27;4.30;;;;;;;7.21;40.83;99814.41;6231106;22;20039;-66
2022/10/25 11:18:50;;;;;;;13.27;4.35;;;;;;;7.18;41.19;99807.47;6234853;22;20055;-69
2022/10/25 11:21:43;;;;;;;6.85;4.13;;;;;;;7.16;40.91;99809.34;6245430;22;20918;-70
2022/10/25 11:24:27;;;;;;;6.75;4.05;;;;;;;7.33;40.37;99812.88;6243226;22;20023;-70
2022/10/25 11:26:59;;;;;;;11.27;4.40;;;;;;;7.56;40.57;99810.59;6232089;22;20347;-71
2022/10/25 11:29:36;;;;;;;9.52;4.15;;;;;;;7.85;39.84;99805.44;6233788;22;20016;-69
2022/10/25 11:32:35;;;;;;;9.20;4.72;;;;;;;7.89;39.29;99809.66;6232978;22;20020;-72
2022/10/25 11:35:18;;;;;;;8.10;4.10;;;;;;;7.79;39.33;99816.44;6230826;22;20110;-72
2022/10/25 11:37:50;;;;;;;7.50;4.47;;;;;;;7.64;40.16;99815.50;6231587;22;20019;-67
2022/10/25 11:40:19;;;;;;;7.90;3.42;;;;;;;7.48;40.07;99818.16;6231420;22;20351;-68